Time;durP1;ratioP1;P1;durP2;ratioP2;P2;SDS_P1;SDS_P2;PMS_P1;PMS_P2;Temp;Humidity;BMP_temperature;BMP_pressure;BME280_temperature;BME280_humidity;BME280_pressure;Samples;Min_cycle;Max_cycle;Signal;HPM_P1;HPM_P2
2021/09/06 00:02:06;;;;;;;8.45;5.20;;;;;;;22.14;53.96;102445.56;4999090;28;20384;-71
2021/09/06 00:04:35;;;;;;;8.75;5.35;;;;;;;22.08;54.09;102439.03;4995249;28;20079;-71
2021/09/06 00:07:00;;;;;;;7.75;4.65;;;;;;;22.03;53.79;102428.88;4999468;28;20601;-71
2021/09/06 00:09:26;;;;;;;8.98;5.47;;;;;;;22.00;53.68;102429.19;5001203;28;20026;-71
2021/09/06 00:11:52;;;;;;;6.30;4.63;;;;;;;22.11;54.11;102448.53;4991082;28;20046;-71
2021/09/06 00:14:18;;;;;;;7.38;5.00;;;;;;;22.13;53.64;102449.22;4984236;28;20502;-72
2021/09/06 00:16:44;;;;;;;7.18;4.82;;;;;;;22.13;53.82;102439.44;5001294;28;20056;-71
2021/09/06 00:19:09;;;;;;;7.25;4.53;;;;;;;21.94;53.76;102418.38;4995342;28;20042;-72
2021/09/06 00:21:36;;;;;;;7.53;5.15;;;;;;;22.12;53.83;102447.56;4975980;28;20061;-71
2021/09/06 00:24:01;;;;;;;9.93;5.60;;;;;;;22.12;54.08;102442.25;4986036;28;20562;-71
2021/09/06 00:26:28;;;;;;;7.88;5.20;;;;;;;22.08;54.09;102435.56;4997079;28;20037;-72
2021/09/06 00:28:55;;;;;;;7.82;4.78;;;;;;;22.11;53.98;102446.72;5001711;28;20048;-71
2021/09/06 00:31:20;;;;;;;6.88;4.55;;;;;;;22.10;53.70;102444.22;4986019;28;20053;-71
2021/09/06 00:33:46;;;;;;;7.78;4.95;;;;;;;22.08;53.78;102443.53;4985772;28;20471;-71
2021/09/06 00:36:11;;;;;;;8.82;4.90;;;;;;;21.90;53.72;102403.75;4978329;28;20045;-71
2021/09/06 00:38:37;;;;;;;7.47;4.68;;;;;;;22.07;54.04;102431.25;4999931;28;20029;-71
2021/09/06 00:41:03;;;;;;;7.95;5.40;;;;;;;22.07;54.02;102426.78;4963293;28;20035;-71
2021/09/06 00:43:29;;;;;;;7.47;4.95;;;;;;;22.07;53.78;102423.28;4980037;28;20038;-71
2021/09/06 00:45:58;;;;;;;8.50;4.82;;;;;;;22.07;53.78;102426.78;4977719;28;20035;-71
2021/09/06 00:48:26;;;;;;;7.47;4.85;;;;;;;22.08;54.06;102432.91;4981972;28;20586;-72
2021/09/06 00:50:53;;;;;;;7.65;5.00;;;;;;;22.05;53.57;102427.91;4984121;28;20429;-71
2021/09/06 00:53:19;;;;;;;7.38;5.15;;;;;;;22.06;53.99;102441.03;5001478;28;20032;-72
2021/09/06 00:55:45;;;;;;;6.15;4.40;;;;;;;22.05;53.80;102435.88;4986204;28;20041;-71
2021/09/06 00:58:13;;;;;;;7.43;4.90;;;;;;;22.06;53.86;102441.03;4992527;28;20140;-71
2021/09/06 01:00:39;;;;;;;7.40;4.93;;;;;;;22.05;53.80;102436.72;4986963;28;20488;-72
2021/09/06 01:03:06;;;;;;;8.30;5.30;;;;;;;22.00;53.82;102431.84;4997283;28;20496;-71
2021/09/06 01:05:31;;;;;;;8.52;5.15;;;;;;;22.06;53.87;102438.38;4984219;28;20041;-71
2021/09/06 01:08:17;;;;;;;8.07;5.13;;;;;;;22.02;53.74;102431.69;4983824;28;20479;-72
2021/09/06 01:11:01;;;;;;;6.38;4.57;;;;;;;22.05;53.82;102449.13;4993654;28;20054;-71
2021/09/06 01:13:41;;;;;;;8.43;4.72;;;;;;;22.03;53.97;102447.44;4988731;28;20037;-72
2021/09/06 01:16:07;;;;;;;7.25;4.68;;;;;;;21.99;53.61;102443.44;5006405;28;20037;-72
2021/09/06 01:18:34;;;;;;;7.97;5.00;;;;;;;21.87;53.84;102417.31;4982281;28;20488;-71
2021/09/06 01:21:00;;;;;;;7.63;5.00;;;;;;;22.00;53.68;102437.16;4985088;28;20034;-71
2021/09/06 01:23:42;;;;;;;6.50;4.70;;;;;;;22.03;53.55;102452.75;4984594;28;20053;-71
2021/09/06 01:26:11;;;;;;;6.20;4.45;;;;;;;21.96;53.90;102445.59;4983426;28;20515;-72
2021/09/06 01:28:38;;;;;;;8.18;4.65;;;;;;;21.94;53.70;102437.78;4981821;28;20067;-72
2021/09/06 01:31:04;;;;;;;7.63;4.90;;;;;;;22.00;53.90;102449.59;4965557;28;20508;-72
2021/09/06 01:33:38;;;;;;;8.43;4.82;;;;;;;21.92;53.69;102431.81;4983336;28;20121;-71
2021/09/06 01:36:04;;;;;;;7.57;4.90;;;;;;;21.99;53.80;102435.50;4986414;28;20046;-71
2021/09/06 01:38:33;;;;;;;7.47;4.80;;;;;;;22.02;53.67;102437.81;4964256;28;20143;-72
2021/09/06 01:41:01;;;;;;;7.93;4.90;;;;;;;21.96;53.54;102433.16;4982963;28;20046;-71
2021/09/06 01:43:26;;;;;;;7.22;4.35;;;;;;;22.01;53.85;102437.97;4983843;28;20065;-71
2021/09/06 01:45:52;;;;;;;7.13;4.90;;;;;;;21.98;53.54;102420.56;4984735;28;20062;-71
2021/09/06 01:48:18;;;;;;;7.00;4.70;;;;;;;22.00;53.92;102445.09;4983868;28;20049;-71
2021/09/06 01:50:45;;;;;;;6.40;4.65;;;;;;;22.00;54.00;102445.09;4983580;28;20030;-72
2021/09/06 01:53:12;;;;;;;6.40;4.63;;;;;;;22.04;53.88;102450.94;4983181;28;20553;-71
2021/09/06 01:55:38;;;;;;;8.32;5.05;;;;;;;22.01;53.73;102460.03;4964075;28;20035;-71
2021/09/06 01:58:09;;;;;;;8.73;5.45;;;;;;;21.99;53.51;102451.41;4979492;28;20095;-71
2021/09/06 02:00:35;;;;;;;7.68;4.82;;;;;;;21.98;53.89;102448.91;4981153;28;20043;-72
2021/09/06 02:03:01;;;;;;;6.75;4.47;;;;;;;21.95;53.70;102438.63;4984891;28;20041;-71
2021/09/06 02:05:40;;;;;;;7.45;4.88;;;;;;;21.95;53.77;102436.78;4983617;28;20053;-71
2021/09/06 02:08:07;;;;;;;7.20;4.60;;;;;;;21.98;53.75;102441.78;4981559;28;20051;-71
2021/09/06 02:10:34;;;;;;;8.60;5.38;;;;;;;21.98;53.64;102439.13;4955887;28;20760;-72
2021/09/06 02:13:01;;;;;;;6.57;4.88;;;;;;;21.95;53.67;102439.44;4982985;28;20757;-72
2021/09/06 02:15:27;;;;;;;8.02;5.13;;;;;;;21.98;53.54;102452.41;4980961;28;20042;-71
2021/09/06 02:17:53;;;;;;;8.88;5.43;;;;;;;21.91;53.85;102424.84;4963791;28;20420;-70
2021/09/06 02:20:20;;;;;;;7.53;4.85;;;;;;;21.92;53.79;102430.97;4974767;28;20481;-72
2021/09/06 02:22:46;;;;;;;6.90;4.63;;;;;;;21.99;53.70;102438.13;4961644;28;20039;-71
2021/09/06 02:25:12;;;;;;;6.75;4.75;;;;;;;21.96;53.77;102437.63;4964643;28;20035;-71
2021/09/06 02:27:38;;;;;;;6.97;4.72;;;;;;;21.90;53.81;102431.13;4964678;28;20039;-71
2021/09/06 02:30:19;;;;;;;10.15;5.18;;;;;;;21.92;53.61;102428.31;4960983;28;20032;-72
2021/09/06 02:32:45;;;;;;;8.23;5.40;;;;;;;21.96;53.38;102437.63;4975525;28;20043;-72
2021/09/06 02:35:25;;;;;;;8.57;5.22;;;;;;;21.92;53.80;102431.81;4950163;28;20464;-71
2021/09/06 02:37:51;;;;;;;9.10;4.90;;;;;;;21.91;53.76;102432.78;4961551;28;20035;-71
2021/09/06 02:40:18;;;;;;;7.38;4.75;;;;;;;21.83;53.52;102413.31;4962298;28;20042;-71
2021/09/06 02:42:47;;;;;;;7.10;4.57;;;;;;;21.91;53.65;102429.31;4959328;28;20034;-72
2021/09/06 02:45:13;;;;;;;5.82;4.72;;;;;;;21.95;53.60;102433.31;4964648;28;20113;-71
2021/09/06 02:47:48;;;;;;;7.97;5.32;;;;;;;21.89;53.80;102434.75;4948701;28;20046;-71
2021/09/06 02:50:16;;;;;;;7.03;5.07;;;;;;;21.92;53.46;102442.41;4964189;28;20050;-71
2021/09/06 02:52:42;;;;;;;6.88;4.68;;;;;;;21.92;53.45;102433.63;4964471;28;20041;-72
2021/09/06 02:55:09;;;;;;;8.32;5.15;;;;;;;21.86;53.59;102440.34;4945052;28;20092;-71
2021/09/06 02:57:39;;;;;;;7.60;4.93;;;;;;;21.91;53.45;102443.41;4963577;28;20042;-71
2021/09/06 03:00:05;;;;;;;6.35;4.45;;;;;;;21.86;53.62;102434.22;4955972;28;20059;-71
2021/09/06 03:02:32;;;;;;;6.43;4.72;;;;;;;21.92;53.60;102444.22;4935274;28;20763;-71
2021/09/06 03:04:58;;;;;;;6.65;4.80;;;;;;;21.90;53.56;102441.75;4950412;28;20046;-71
2021/09/06 03:07:24;;;;;;;6.50;4.82;;;;;;;21.88;53.34;102437.53;4964023;28;20073;-72
2021/09/06 03:09:51;;;;;;;7.93;5.20;;;;;;;21.85;53.82;102433.38;4960869;28;20031;-71
2021/09/06 03:12:17;;;;;;;7.32;5.13;;;;;;;21.87;53.51;102435.88;4959080;28;20128;-70
2021/09/06 03:14:45;;;;;;;7.25;4.80;;;;;;;21.87;53.46;102443.84;4963837;28;20125;-71
2021/09/06 03:17:11;;;;;;;8.35;4.70;;;;;;;21.82;53.80;102435.53;4973618;28;20390;-70
2021/09/06 03:19:36;;;;;;;7.53;4.75;;;;;;;21.83;53.79;102438.00;4963599;28;20493;-70
2021/09/06 03:22:03;;;;;;;6.68;4.70;;;;;;;21.89;53.45;102453.31;4946212;28;20038;-70
2021/09/06 03:24:29;;;;;;;7.45;5.10;;;;;;;21.88;53.50;102451.63;4962530;28;20468;-70
2021/09/06 03:26:54;;;;;;;10.05;5.32;;;;;;;21.89;53.52;102442.69;4969816;28;20041;-71
2021/09/06 03:29:20;;;;;;;7.05;4.70;;;;;;;21.89;53.31;102444.50;4966289;28;20038;-70
2021/09/06 03:31:46;;;;;;;8.52;5.47;;;;;;;21.88;53.60;102446.34;4946780;28;20061;-71
2021/09/06 03:34:13;;;;;;;6.25;4.60;;;;;;;21.79;53.29;102419.94;4960892;28;20039;-70
2021/09/06 03:36:40;;;;;;;7.00;4.95;;;;;;;21.86;53.40;102434.22;4946386;28;20030;-71
2021/09/06 03:39:10;;;;;;;9.55;5.38;;;;;;;21.84;53.57;102437.03;4962716;28;20050;-70
2021/09/06 03:41:35;;;;;;;9.43;5.35;;;;;;;21.86;53.33;102436.88;4962326;28;20039;-70
2021/09/06 03:44:01;;;;;;;7.85;5.35;;;;;;;21.73;53.33;102417.91;4964201;28;20066;-70
2021/09/06 03:46:30;;;;;;;8.75;5.32;;;;;;;21.87;53.25;102436.72;4962345;28;20049;-70
2021/09/06 03:48:57;;;;;;;6.25;4.70;;;;;;;21.87;53.32;102435.88;4961397;28;20047;-70
2021/09/06 03:51:23;;;;;;;8.68;4.63;;;;;;;21.84;53.30;102430.91;4978362;28;20390;-70
2021/09/06 03:53:49;;;;;;;8.38;5.22;;;;;;;21.62;53.36;102403.06;4961993;28;20890;-70
2021/09/06 03:56:16;;;;;;;8.90;5.28;;;;;;;21.77;53.58;102424.56;4953865;28;20042;-70
2021/09/06 03:58:42;;;;;;;7.55;4.85;;;;;;;21.83;53.63;102437.19;4961826;28;20034;-71
2021/09/06 04:01:08;;;;;;;6.03;4.70;;;;;;;21.84;53.61;102436.19;4962776;28;20121;-70
2021/09/06 04:03:34;;;;;;;5.97;4.55;;;;;;;21.82;53.66;102428.41;4960875;28;20043;-71
2021/09/06 04:06:02;;;;;;;9.23;4.93;;;;;;;21.82;53.15;102427.56;4947104;28;20050;-70
2021/09/06 04:08:28;;;;;;;8.40;5.20;;;;;;;21.83;53.39;102424.75;4946548;28;20670;-71
2021/09/06 04:10:54;;;;;;;8.15;5.05;;;;;;;21.82;53.49;102425.75;4962770;28;20069;-70
2021/09/06 04:13:24;;;;;;;8.18;5.28;;;;;;;21.80;53.33;102425.06;4963967;28;20057;-71
2021/09/06 04:15:53;;;;;;;7.28;4.30;;;;;;;21.79;53.32;102422.56;4962338;28;20039;-70
2021/09/06 04:18:21;;;;;;;6.90;4.93;;;;;;;21.60;53.23;102391.78;4960264;28;20059;-71
2021/09/06 04:20:47;;;;;;;6.18;4.63;;;;;;;21.80;53.46;102416.28;4951262;28;20043;-71
2021/09/06 04:23:13;;;;;;;6.60;5.05;;;;;;;21.76;53.56;102418.41;4961423;28;20036;-70
2021/09/06 04:25:39;;;;;;;6.03;4.70;;;;;;;21.81;53.54;102431.22;4960344;28;20078;-70
2021/09/06 04:28:05;;;;;;;7.20;5.25;;;;;;;21.75;53.14;102416.75;4956490;28;20046;-70
2021/09/06 04:30:31;;;;;;;7.78;4.95;;;;;;;21.75;53.44;102418.56;4960193;28;20035;-71
2021/09/06 04:32:57;;;;;;;7.45;5.00;;;;;;;21.77;53.42;102437.81;4980412;28;20038;-71
2021/09/06 04:35:23;;;;;;;6.50;4.68;;;;;;;21.75;53.31;102434.47;4962751;28;20515;-70
2021/09/06 04:37:49;;;;;;;7.93;5.38;;;;;;;21.81;53.20;102441.81;4956412;28;20047;-70
2021/09/06 04:40:19;;;;;;;7.57;4.85;;;;;;;21.76;53.33;102439.63;4961545;28;20035;-70
2021/09/06 04:42:49;;;;;;;;;;;;;;;21.77;53.27;102441.28;4979387;28;20042;-71
2021/09/06 04:45:16;;;;;;;7.35;5.00;;;;;;;21.73;53.15;102439.94;4956087;28;19926;-71
2021/09/06 04:47:43;;;;;;;7.22;4.68;;;;;;;21.73;53.50;102447.06;4961767;28;20057;-70
2021/09/06 04:50:10;;;;;;;8.10;4.88;;;;;;;21.80;53.44;102453.41;4966243;28;20038;-70
2021/09/06 04:52:35;;;;;;;7.60;5.25;;;;;;;21.74;53.31;102446.09;4966924;28;20559;-71
2021/09/06 04:55:05;;;;;;;7.65;4.63;;;;;;;21.70;53.28;102454.31;4964519;28;20493;-71
2021/09/06 04:57:31;;;;;;;6.97;4.70;;;;;;;21.70;53.63;102456.13;4946805;28;20067;-70
2021/09/06 04:59:56;;;;;;;8.55;5.18;;;;;;;21.74;53.45;102465.47;4957723;28;20485;-71
2021/09/06 05:02:22;;;;;;;7.20;4.90;;;;;;;21.76;53.14;102465.31;4962776;28;20043;-71
2021/09/06 05:04:48;;;;;;;8.55;4.95;;;;;;;21.76;53.29;102468.81;4961717;28;20047;-69
2021/09/06 05:07:14;;;;;;;7.28;4.90;;;;;;;21.74;53.17;102467.28;4961909;28;20039;-71
2021/09/06 05:09:40;;;;;;;5.93;4.70;;;;;;;21.70;53.49;102461.44;4963500;28;20395;-71
2021/09/06 05:12:06;;;;;;;6.43;4.90;;;;;;;21.70;53.40;102466.75;4943965;28;20042;-71
2021/09/06 05:14:36;;;;;;;7.55;5.00;;;;;;;21.67;53.09;102459.94;4965809;28;20035;-71
2021/09/06 05:17:03;;;;;;;6.85;5.20;;;;;;;21.73;53.14;102471.75;4964111;28;20390;-71
2021/09/06 05:19:29;;;;;;;6.80;4.85;;;;;;;21.71;53.48;102477.19;4948424;28;20042;-70
2021/09/06 05:21:55;;;;;;;5.40;3.85;;;;;;;21.70;53.11;102480.81;4957034;28;20515;-71
2021/09/06 05:24:21;;;;;;;7.13;5.00;;;;;;;21.71;53.28;102479.84;4950383;28;20056;-70
2021/09/06 05:26:46;;;;;;;7.50;4.80;;;;;;;21.74;53.30;102478.72;4965566;28;20480;-70
2021/09/06 05:29:12;;;;;;;6.25;4.47;;;;;;;21.59;53.28;102464.34;4958076;28;20047;-69
2021/09/06 05:31:38;;;;;;;6.60;4.80;;;;;;;21.72;53.40;102480.66;4949344;28;20054;-70
2021/09/06 05:34:03;;;;;;;8.80;5.18;;;;;;;21.69;53.24;102487.13;4965652;28;20081;-70
2021/09/06 05:36:29;;;;;;;7.65;4.72;;;;;;;21.63;53.43;102471.81;4959144;28;20035;-70
2021/09/06 05:38:58;;;;;;;6.47;4.78;;;;;;;21.74;53.23;102478.72;4949739;28;20476;-71
2021/09/06 05:41:44;;;;;;;6.05;4.55;;;;;;;21.74;52.96;102472.59;4962320;28;20089;-70
2021/09/06 05:44:10;;;;;;;7.20;5.10;;;;;;;21.67;53.55;102478.47;4964582;28;20289;-70
2021/09/06 05:46:39;;;;;;;8.65;5.00;;;;;;;21.71;53.15;102482.50;4965799;28;20410;-70
2021/09/06 05:49:06;;;;;;;7.25;4.78;;;;;;;21.71;53.37;102482.50;4960173;28;20046;-70
2021/09/06 05:51:35;;;;;;;7.30;4.90;;;;;;;21.70;53.40;102488.78;4962720;28;20050;-71
2021/09/06 05:54:09;;;;;;;7.80;5.10;;;;;;;21.66;53.42;102478.63;4960457;28;20378;-69
2021/09/06 05:56:35;;;;;;;9.40;4.70;;;;;;;21.70;53.29;102493.25;4962912;28;20065;-71
2021/09/06 05:59:02;;;;;;;7.72;5.18;;;;;;;21.70;53.17;102496.72;4987816;28;20039;-71
2021/09/06 06:01:30;;;;;;;6.78;4.80;;;;;;;21.69;53.29;102486.28;4963972;28;20031;-70
2021/09/06 06:03:56;;;;;;;7.97;5.32;;;;;;;21.71;53.17;102498.41;4959595;28;20108;-70
2021/09/06 06:06:26;;;;;;;7.00;4.57;;;;;;;21.65;53.22;102488.41;4965954;28;20039;-70
2021/09/06 06:08:57;;;;;;;5.63;4.38;;;;;;;21.65;53.12;102496.38;4964753;28;20516;-70
2021/09/06 06:11:22;;;;;;;7.07;4.75;;;;;;;21.65;53.26;102495.53;4960123;28;20036;-70
2021/09/06 06:13:48;;;;;;;7.55;4.95;;;;;;;21.64;53.14;102502.66;4960803;28;20045;-71
2021/09/06 06:16:16;;;;;;;6.85;4.65;;;;;;;21.66;53.39;102497.19;4964618;28;20053;-71
2021/09/06 06:18:41;;;;;;;5.97;4.85;;;;;;;21.69;53.46;102510.16;4978131;28;20051;-71
2021/09/06 06:21:11;;;;;;;6.65;4.80;;;;;;;21.68;53.30;102505.84;4967056;28;20042;-70
2021/09/06 06:23:52;;;;;;;6.78;4.95;;;;;;;21.63;53.38;102502.81;4968192;28;20073;-70
2021/09/06 06:26:40;;;;;;;6.35;4.70;;;;;;;21.62;53.25;102499.31;5025428;28;20042;-70
2021/09/06 06:29:09;;;;;;;6.25;4.70;;;;;;;21.71;53.08;102508.16;4940191;28;20043;-70
2021/09/06 06:31:35;;;;;;;6.65;4.93;;;;;;;21.61;53.22;102502.13;4989228;28;20058;-71
2021/09/06 06:34:01;;;;;;;7.40;4.68;;;;;;;21.70;53.36;102512.66;4965613;28;20046;-71
2021/09/06 06:36:31;;;;;;;7.15;4.53;;;;;;;21.69;53.13;102513.63;4969526;28;20099;-70
2021/09/06 06:38:58;;;;;;;9.05;5.05;;;;;;;21.70;53.47;102510.00;4979342;28;20703;-70
2021/09/06 06:41:23;;;;;;;6.15;4.53;;;;;;;21.69;53.19;102510.16;4973009;28;20428;-70
2021/09/06 06:43:54;;;;;;;7.22;5.00;;;;;;;21.68;53.27;102516.44;4967102;28;20153;-71
2021/09/06 06:46:19;;;;;;;6.43;4.55;;;;;;;21.76;53.34;102515.69;4983756;28;20505;-71
2021/09/06 06:48:48;;;;;;;7.15;4.55;;;;;;;21.68;53.07;102505.84;4983325;28;20030;-70
2021/09/06 06:51:17;;;;;;;6.82;4.70;;;;;;;21.79;52.80;102529.47;4982648;28;20023;-70
2021/09/06 06:53:44;;;;;;;6.85;4.57;;;;;;;21.71;52.97;102514.31;4980168;28;20132;-70
2021/09/06 06:56:12;;;;;;;6.93;4.20;;;;;;;21.82;53.09;102521.22;4965466;28;20629;-70
2021/09/06 06:58:38;;;;;;;6.65;4.88;;;;;;;21.85;53.00;102526.22;4963009;28;20051;-71
2021/09/06 07:01:08;;;;;;;7.93;4.47;;;;;;;21.87;52.85;102529.53;4970203;28;20722;-70
2021/09/06 07:03:35;;;;;;;6.85;4.70;;;;;;;21.87;53.16;102528.72;4961498;28;20092;-70
2021/09/06 07:06:02;;;;;;;6.15;4.57;;;;;;;21.87;53.11;102528.72;4971401;28;20050;-70
2021/09/06 07:08:29;;;;;;;6.43;4.70;;;;;;;21.91;53.04;102524.78;4956053;28;20042;-70
2021/09/06 07:10:55;;;;;;;5.93;4.50;;;;;;;21.86;52.86;102513.78;4980819;28;20034;-70
2021/09/06 07:13:20;;;;;;;6.38;4.43;;;;;;;21.90;53.02;102518.66;4979025;28;20492;-70
2021/09/06 07:15:46;;;;;;;5.93;4.20;;;;;;;21.95;52.99;102528.78;4961693;28;20049;-70
2021/09/06 07:18:14;;;;;;;6.38;4.35;;;;;;;21.95;53.06;102529.63;4973717;28;20095;-70
2021/09/06 07:20:40;;;;;;;5.95;4.50;;;;;;;21.94;53.21;102522.66;4970142;28;20892;-70
2021/09/06 07:23:06;;;;;;;7.55;4.65;;;;;;;21.98;52.98;102524.00;4954512;28;20096;-70
2021/09/06 07:25:35;;;;;;;6.43;4.93;;;;;;;22.02;53.13;102532.50;4972791;28;20125;-70
2021/09/06 07:28:01;;;;;;;6.57;4.57;;;;;;;22.00;53.14;102534.47;4973533;28;20038;-70
2021/09/06 07:30:27;;;;;;;8.30;4.80;;;;;;;22.02;52.62;102535.16;4969778;28;20483;-69
2021/09/06 07:32:55;;;;;;;6.75;4.43;;;;;;;22.03;52.32;102542.13;4968269;28;20058;-69
2021/09/06 07:35:21;;;;;;;7.28;5.32;;;;;;;22.06;52.29;102551.63;4970136;28;20492;-70
2021/09/06 07:37:47;;;;;;;6.85;5.05;;;;;;;22.02;52.66;102540.44;4952414;28;20117;-69
2021/09/06 07:40:12;;;;;;;7.05;4.78;;;;;;;22.05;52.27;102547.28;4970169;28;20538;-70
2021/09/06 07:42:43;;;;;;;10.00;5.30;;;;;;;22.05;52.57;102542.00;4968803;28;20041;-69
2021/09/06 07:45:10;;;;;;;11.93;6.75;;;;;;;22.00;52.70;102548.56;4950413;28;20405;-70
2021/09/06 07:47:37;;;;;;;10.20;5.90;;;;;;;22.04;52.52;102538.47;4962502;28;20055;-69
2021/09/06 07:50:10;;;;;;;9.05;6.07;;;;;;;21.98;52.95;102539.09;4954496;28;20065;-69
2021/09/06 07:52:36;;;;;;;8.60;5.20;;;;;;;21.99;52.75;102536.28;4959785;28;20388;-69
2021/09/06 07:55:07;;;;;;;9.25;5.55;;;;;;;22.02;52.96;102538.63;4955361;28;20439;-70
2021/09/06 07:57:33;;;;;;;8.23;5.40;;;;;;;21.86;53.09;102514.63;4957265;28;20547;-70
2021/09/06 08:00:00;;;;;;;7.57;5.20;;;;;;;22.02;53.13;102551.06;4967183;28;20447;-70
2021/09/06 08:02:25;;;;;;;8.52;5.40;;;;;;;22.03;53.17;102560.69;4954526;28;20047;-70
2021/09/06 08:04:52;;;;;;;8.10;5.63;;;;;;;22.08;53.02;102547.81;4949640;28;20045;-70
2021/09/06 08:07:19;;;;;;;10.88;5.47;;;;;;;22.08;53.24;102553.13;4960239;28;20515;-70
2021/09/06 08:09:45;;;;;;;7.53;5.38;;;;;;;22.11;53.14;102554.66;4957982;28;20385;-70
2021/09/06 08:12:12;;;;;;;8.88;5.28;;;;;;;22.03;53.22;102553.56;4949534;28;20509;-70
2021/09/06 08:14:38;;;;;;;10.93;5.57;;;;;;;22.00;53.29;102551.22;4958562;28;20066;-70
2021/09/06 08:17:05;;;;;;;9.23;5.35;;;;;;;22.10;53.28;102575.06;4949780;28;20051;-70
2021/09/06 08:19:34;;;;;;;9.98;6.72;;;;;;;22.11;53.25;102587.34;4969079;28;20073;-77
2021/09/06 08:21:59;;;;;;;9.27;5.50;;;;;;;22.11;53.36;102584.69;4929084;28;20053;-70
2021/09/06 08:24:25;;;;;;;6.90;4.85;;;;;;;22.06;53.48;102573.66;4938372;28;20413;-71
2021/09/06 08:26:51;;;;;;;9.60;6.13;;;;;;;22.09;53.36;102583.16;4960154;28;20095;-70
2021/09/06 08:29:18;;;;;;;8.73;5.47;;;;;;;22.11;53.41;102576.72;4943849;28;20042;-70
2021/09/06 08:31:46;;;;;;;9.32;5.90;;;;;;;22.13;53.20;102589.84;4961256;28;20033;-70
2021/09/06 08:34:13;;;;;;;9.23;6.03;;;;;;;22.14;53.35;102586.19;4961380;28;20129;-71
2021/09/06 08:36:43;;;;;;;7.85;5.32;;;;;;;22.16;53.41;102586.88;4946860;28;20066;-71
2021/09/06 08:39:09;;;;;;;8.48;5.32;;;;;;;22.16;53.30;102587.69;4960677;28;20450;-69
2021/09/06 08:41:35;;;;;;;9.73;5.80;;;;;;;22.16;53.40;102584.22;4928855;28;20282;-69
2021/09/06 08:44:02;;;;;;;8.60;5.38;;;;;;;22.18;53.39;102591.03;4961505;28;20035;-70
2021/09/06 08:46:28;;;;;;;8.27;5.55;;;;;;;22.17;53.19;102586.72;4973591;28;20083;-70
2021/09/06 08:48:54;;;;;;;9.57;6.25;;;;;;;22.21;53.49;102596.03;4960743;28;20035;-70
2021/09/06 08:51:22;;;;;;;7.35;5.55;;;;;;;22.20;53.40;102597.00;4959473;28;20110;-71
2021/09/06 08:53:48;;;;;;;9.60;5.85;;;;;;;22.15;53.42;102594.00;4960443;28;20135;-71
2021/09/06 08:56:14;;;;;;;9.75;6.30;;;;;;;22.16;53.24;102595.66;4959836;28;20028;-71
2021/09/06 08:58:41;;;;;;;8.98;5.43;;;;;;;22.19;53.53;102605.97;4957938;28;20739;-71
2021/09/06 09:01:07;;;;;;;9.23;5.45;;;;;;;22.09;53.71;102589.31;4964153;28;20208;-71
2021/09/06 09:03:44;;;;;;;8.88;5.53;;;;;;;22.17;53.78;102602.63;4958519;28;20046;-71
2021/09/06 09:06:37;;;;;;;9.23;5.95;;;;;;;22.22;53.35;102610.97;4950679;28;20112;-70
2021/09/06 09:09:32;;;;;;;12.05;6.05;;;;;;;22.07;53.34;102585.94;4959415;28;20081;-70
2021/09/06 09:12:21;;;;;;;11.13;5.47;;;;;;;22.22;53.57;102600.34;4957206;28;20054;-71
2021/09/06 09:15:01;;;;;;;9.93;5.93;;;;;;;22.16;53.46;102597.47;4962459;28;20061;-71
2021/09/06 09:17:54;;;;;;;8.88;5.15;;;;;;;22.20;53.64;102598.84;4956320;28;20526;-70
2021/09/06 09:20:43;;;;;;;11.27;6.30;;;;;;;22.25;53.24;102605.34;4977115;28;20044;-70
2021/09/06 09:23:37;;;;;;;11.75;6.00;;;;;;;22.25;53.20;102609.81;4981315;28;20046;-71
2021/09/06 09:26:10;;;;;;;10.60;6.53;;;;;;;22.27;53.45;102606.06;4977578;28;20034;-70
2021/09/06 09:28:51;;;;;;;10.00;6.45;;;;;;;22.26;53.58;102612.34;4979762;28;20041;-69
2021/09/06 09:31:52;;;;;;;9.30;5.85;;;;;;;22.27;53.25;102606.06;4981800;28;20046;-70
2021/09/06 09:34:43;;;;;;;15.93;6.90;;;;;;;22.23;53.34;102606.47;4997758;28;20069;-69
2021/09/06 09:37:27;;;;;;;11.73;6.07;;;;;;;22.18;53.26;102603.47;4979990;28;20185;-69
2021/09/06 09:39:55;;;;;;;8.48;5.53;;;;;;;22.28;53.19;102617.50;4983956;28;20091;-69
2021/09/06 09:42:20;;;;;;;9.52;5.60;;;;;;;22.24;53.27;102608.97;4981967;28;20046;-69
2021/09/06 09:44:53;;;;;;;11.57;6.22;;;;;;;22.29;53.45;102613.84;4991080;28;20038;-69
2021/09/06 09:47:53;;;;;;;10.27;6.07;;;;;;;22.29;53.02;102616.50;4986110;28;20225;-70
2021/09/06 09:50:22;;;;;;;9.70;5.88;;;;;;;22.21;53.34;102608.47;4984271;28;20054;-70
2021/09/06 09:52:50;;;;;;;9.10;5.65;;;;;;;22.27;53.08;102611.34;4985628;28;20557;-70
2021/09/06 09:55:16;;;;;;;12.45;6.35;;;;;;;22.29;53.44;102603.25;4983609;28;20043;-70
2021/09/06 09:57:43;;;;;;;10.38;6.13;;;;;;;22.28;53.47;102606.88;4980180;28;20484;-70
2021/09/06 10:00:10;;;;;;;9.55;5.93;;;;;;;22.30;53.13;102610.22;4978456;28;20097;-70
2021/09/06 10:02:42;;;;;;;10.02;5.90;;;;;;;22.31;53.33;102604.75;4984972;28;20496;-70
2021/09/06 10:05:10;;;;;;;8.57;5.65;;;;;;;22.28;53.07;102596.28;4985299;28;20039;-70
2021/09/06 10:07:41;;;;;;;8.93;5.60;;;;;;;22.30;53.05;102588.97;4983683;28;20115;-70
2021/09/06 10:10:18;;;;;;;11.02;6.13;;;;;;;22.31;53.03;102591.47;4985463;28;20026;-70
2021/09/06 10:13:06;;;;;;;9.07;5.53;;;;;;;22.30;52.98;102579.19;4994376;28;20073;-70
2021/09/06 10:15:35;;;;;;;10.43;6.32;;;;;;;22.28;53.23;102570.56;4984744;28;20175;-70
2021/09/06 10:18:17;;;;;;;10.60;5.95;;;;;;;22.33;53.08;102578.06;4987579;28;20058;-69
2021/09/06 10:20:45;;;;;;;10.73;6.78;;;;;;;22.25;53.17;102565.53;4981279;28;20509;-70
2021/09/06 10:23:12;;;;;;;8.73;5.85;;;;;;;22.32;53.08;102579.03;4981009;28;20153;-69
2021/09/06 10:25:41;;;;;;;9.90;5.97;;;;;;;22.33;53.25;102585.19;4994188;28;20041;-71
2021/09/06 10:28:13;;;;;;;9.43;6.03;;;;;;;22.29;52.91;102580.19;4989896;28;20034;-70
2021/09/06 10:30:48;;;;;;;10.77;6.10;;;;;;;22.30;52.90;102589.81;5002359;28;20022;-70
2021/09/06 10:33:29;;;;;;;12.45;6.50;;;;;;;22.33;52.92;102583.38;5000746;28;20070;-70
2021/09/06 10:36:04;;;;;;;10.15;6.32;;;;;;;22.31;52.89;102577.38;4998295;28;20514;-70
2021/09/06 10:38:52;;;;;;;10.80;6.45;;;;;;;22.34;52.93;102577.06;4999523;28;20030;-71
2021/09/06 10:41:23;;;;;;;11.05;6.45;;;;;;;22.28;52.94;102572.38;5001612;28;20045;-70
2021/09/06 10:43:49;;;;;;;11.65;6.85;;;;;;;22.33;53.17;102585.19;5000266;28;20037;-70
2021/09/06 10:46:16;;;;;;;9.73;6.15;;;;;;;22.33;52.91;102588.66;4999379;28;20403;-70
2021/09/06 10:48:43;;;;;;;9.38;6.70;;;;;;;22.33;52.97;102586.00;5001475;28;20037;-70
2021/09/06 10:51:09;;;;;;;9.90;6.55;;;;;;;22.34;53.26;102582.38;4984690;28;20034;-70
2021/09/06 10:53:37;;;;;;;10.98;6.88;;;;;;;22.30;52.97;102581.03;5002290;28;20055;-70
2021/09/06 10:56:06;;;;;;;8.90;6.22;;;;;;;22.33;52.87;102574.56;5001889;28;20042;-69
2021/09/06 10:58:34;;;;;;;11.82;6.40;;;;;;;22.28;52.84;102572.38;4985568;28;20045;-70
2021/09/06 11:01:04;;;;;;;12.95;6.65;;;;;;;22.34;52.96;102584.19;4985073;28;20041;-70
2021/09/06 11:03:36;;;;;;;9.02;6.05;;;;;;;22.33;52.85;102580.72;5003119;28;20038;-70
2021/09/06 11:06:03;;;;;;;13.18;6.70;;;;;;;22.39;52.95;102576.59;4997096;28;20428;-70
2021/09/06 11:08:36;;;;;;;12.43;7.35;;;;;;;22.36;53.14;102580.41;5033689;28;20038;-70
2021/09/06 11:11:08;;;;;;;9.65;6.40;;;;;;;22.38;52.94;102577.59;5006211;28;20473;-70
2021/09/06 11:13:40;;;;;;;11.60;7.00;;;;;;;22.34;53.27;102568.28;4994098;28;20110;-69
2021/09/06 11:16:11;;;;;;;8.73;6.68;;;;;;;22.37;52.83;102563.47;5001638;28;20069;-69
2021/09/06 11:18:42;;;;;;;10.45;6.70;;;;;;;22.36;52.87;102567.13;4992427;28;20046;-70
2021/09/06 11:21:08;;;;;;;11.32;6.85;;;;;;;22.36;53.23;102561.81;5001977;28;20117;-70
2021/09/06 11:23:40;;;;;;;10.38;6.57;;;;;;;22.37;52.77;102563.47;5007094;28;20487;-70
2021/09/06 11:26:09;;;;;;;11.60;6.95;;;;;;;22.36;52.75;102563.63;4996526;28;20046;-69
2021/09/06 11:28:43;;;;;;;10.95;6.60;;;;;;;22.36;53.15;102567.13;5004625;28;20044;-70
2021/09/06 11:31:09;;;;;;;10.73;6.70;;;;;;;22.33;53.34;102556.00;5005444;28;20038;-70
2021/09/06 11:33:34;;;;;;;10.55;6.72;;;;;;;22.37;53.23;102562.66;5011362;28;20066;-70